Archival Weather

Chicago O'Hare International

Chicago, Illinois (KORD)

Report from: Tuesday, February 27, 2024 11:51 PM CST
Current time: Wednesday, May 29, 2024 7:27 PM CDT

Current weather – Weather history – Daily summaries
Weather forecast

Temperature11.7°C (53.1°F)
Dew point8.9°C (48.0°F)
Winds 12 kts (6.2 m/s, 13.8 mph) West-Northwest (290°)
Wind gusts 19 kts (9.8 m/s, 21.9 mph)
Visibility10 mi. (16.1 km)
Clouds Few clouds 8,000 ft. (2,438 m)
Altimeter29.25 in.Hg (991 mB)
Precip last 3 hours0.45 in. (11 mm)
Relative humidity83 %
Density altitude561 ft. (171 m)
Sea-level pressure99.0 kPa (990 mB, 29.24 in.Hg)
Max temp last 6 hours19.4°C (66.9°F)
Min temp last 6 hours11.1°C (52.0°F)
Max temp last 24 hours23.3°C (73.9°F)
Min temp last 24 hours11.1°C (52.0°F)
Remarks System requires maintenance
Automated weather observing station with precipitation discriminator
Pressure rising more quickly
Flight conditions Visual Meteorological Conditions
Raw dataKORD 280551Z 29012G19KT 10SM FEW080 12/09 A2925 RMK AO2 SLP901 60045 T01170089 10194 20111 402330111 53013 $
An error has occurred. This application may no longer respond until reloaded. Reload 🗙